Time;durP1;ratioP1;P1;durP2;ratioP2;P2;SDS_P1;SDS_P2;PMS_P1;PMS_P2;Temp;Humidity;BMP_temperature;BMP_pressure;BME280_temperature;BME280_humidity;BME280_pressure;Samples;Min_cycle;Max_cycle;Signal;HPM_P1;HPM_P2
2021/07/04 00:06:22;;;;;;;5.13;3.88;;;;;;;23.29;51.09;99497.47;5055835;28;20090;-90
2021/07/04 00:08:49;;;;;;;4.93;3.75;;;;;;;23.28;51.58;99498.50;5055970;28;20088;-91
2021/07/04 00:11:16;;;;;;;7.47;3.75;;;;;;;23.26;51.93;99488.97;5053733;28;20059;-91
2021/07/04 00:13:42;;;;;;;5.43;3.33;;;;;;;23.26;51.79;99494.31;5053757;28;20056;-89
2021/07/04 00:16:09;;;;;;;4.20;3.65;;;;;;;23.23;52.26;99492.84;5054035;28;20060;-90
2021/07/04 00:18:36;;;;;;;5.55;3.78;;;;;;;23.23;52.07;99486.63;5055107;28;20049;-90
2021/07/04 00:21:07;;;;;;;5.28;3.88;;;;;;;23.20;52.40;99487.81;5055153;28;20056;-90
2021/07/04 00:23:34;;;;;;;4.03;3.67;;;;;;;23.18;52.46;99487.16;5055077;28;20076;-90
2021/07/04 00:26:03;;;;;;;4.15;3.50;;;;;;;23.14;52.75;99486.66;5053365;28;20048;-90
2021/07/04 00:28:31;;;;;;;6.25;4.03;;;;;;;23.10;52.92;99484.53;5055201;28;20045;-90
2021/07/04 00:30:58;;;;;;;4.32;3.78;;;;;;;23.05;52.86;99485.03;5053333;28;20053;-91
2021/07/04 00:33:25;;;;;;;4.90;3.97;;;;;;;22.99;52.93;99475.84;5055191;28;20049;-91
2021/07/04 00:35:52;;;;;;;4.20;3.80;;;;;;;22.95;52.82;99477.19;5055684;28;20056;-91
2021/07/04 00:38:19;;;;;;;6.10;4.10;;;;;;;22.91;53.70;99474.03;5054864;28;20064;-92
2021/07/04 00:40:46;;;;;;;3.60;3.25;;;;;;;22.89;53.55;99480.59;5054163;28;20064;-91
2021/07/04 00:43:12;;;;;;;4.75;3.88;;;;;;;22.87;53.80;99474.56;5055578;28;20053;-91
2021/07/04 00:45:39;;;;;;;4.13;3.50;;;;;;;22.86;53.99;99471.06;5053721;28;20399;-90
2021/07/04 00:48:06;;;;;;;3.63;3.33;;;;;;;22.87;53.84;99474.56;5055050;28;20052;-90
2021/07/04 00:50:34;;;;;;;6.00;3.88;;;;;;;22.86;54.25;99468.38;5053230;28;20088;-91
2021/07/04 00:53:02;;;;;;;6.13;3.85;;;;;;;22.86;54.43;99462.16;5054666;28;20392;-90
2021/07/04 00:55:29;;;;;;;4.15;3.75;;;;;;;22.86;54.66;99459.47;5053572;28;20115;-90
2021/07/04 00:57:56;;;;;;;7.03;3.53;;;;;;;22.86;54.50;99457.63;5053679;28;20048;-91
2021/07/04 01:00:25;;;;;;;4.18;3.78;;;;;;;22.85;55.08;99465.84;5054443;28;20071;-90
2021/07/04 01:02:52;;;;;;;4.22;3.75;;;;;;;22.86;54.54;99463.00;5054075;28;20056;-91
2021/07/04 01:05:22;;;;;;;8.93;4.05;;;;;;;22.83;54.84;99460.66;5053051;28;20114;-91
2021/07/04 01:07:49;;;;;;;5.03;4.35;;;;;;;22.84;55.13;99464.19;5053033;28;20048;-90
2021/07/04 01:10:20;;;;;;;9.27;3.72;;;;;;;22.81;55.46;99461.84;5054277;28;20045;-90
2021/07/04 01:12:49;;;;;;;5.82;4.00;;;;;;;22.80;55.22;99462.88;5052677;28;20057;-90
2021/07/04 01:15:17;;;;;;;6.40;3.85;;;;;;;22.75;55.10;99455.34;5052786;28;20057;-90
2021/07/04 01:17:46;;;;;;;4.65;3.95;;;;;;;22.72;55.25;99461.88;5056979;28;20060;-91
2021/07/04 01:20:15;;;;;;;5.13;3.67;;;;;;;22.69;55.37;99456.03;5072319;28;20490;-90
2021/07/04 01:22:51;;;;;;;4.55;4.07;;;;;;;22.66;55.45;99457.22;5072767;28;20048;-89
2021/07/04 01:25:18;;;;;;;4.10;3.70;;;;;;;22.64;55.14;99454.72;5073441;28;20052;-90
2021/07/04 01:27:45;;;;;;;6.53;4.63;;;;;;;22.62;55.68;99445.19;5073989;28;20053;-89
2021/07/04 01:30:12;;;;;;;5.50;4.03;;;;;;;22.61;55.66;99444.31;5073927;28;20052;-89
2021/07/04 01:32:39;;;;;;;4.80;4.20;;;;;;;22.61;55.69;99446.19;5072294;28;20051;-90
2021/07/04 01:35:06;;;;;;;4.75;4.20;;;;;;;22.57;55.92;99439.50;5072956;28;20044;-90
2021/07/04 01:37:36;;;;;;;5.55;4.40;;;;;;;22.55;56.21;99439.66;5072156;28;20147;-89
2021/07/04 01:40:04;;;;;;;4.88;4.35;;;;;;;22.53;56.30;99433.59;5072297;28;20052;-90
2021/07/04 01:42:30;;;;;;;6.35;4.82;;;;;;;22.52;56.46;99429.25;5073608;28;20068;-90
2021/07/04 01:44:57;;;;;;;6.20;4.35;;;;;;;22.50;56.72;99429.41;5071633;28;20056;-89
2021/07/04 01:47:24;;;;;;;5.18;4.53;;;;;;;22.49;56.33;99427.75;5072422;28;20056;-89
2021/07/04 01:49:50;;;;;;;5.13;4.68;;;;;;;22.48;56.47;99431.44;5071703;28;20045;-90
2021/07/04 01:52:17;;;;;;;5.88;4.82;;;;;;;22.45;56.80;99422.91;5073791;28;20390;-90
2021/07/04 01:54:44;;;;;;;5.30;4.50;;;;;;;22.41;56.62;99422.41;5071969;28;20052;-90
2021/07/04 01:57:13;;;;;;;4.93;4.43;;;;;;;22.38;56.88;99417.41;5071730;28;20052;-90
2021/07/04 01:59:45;;;;;;;5.40;4.80;;;;;;;22.34;57.28;99416.91;5072052;28;20051;-90
2021/07/04 02:02:11;;;;;;;5.90;4.57;;;;;;;22.35;56.67;99412.41;5073147;28;20052;-89
2021/07/04 02:04:43;;;;;;;5.47;4.65;;;;;;;22.31;57.61;99411.06;5071789;28;20055;-90
2021/07/04 02:07:18;;;;;;;7.13;4.75;;;;;;;22.29;57.73;99407.72;5072477;28;20051;-90
2021/07/04 02:09:47;;;;;;;4.88;4.40;;;;;;;22.30;57.17;99404.88;5072730;28;20048;-90
2021/07/04 02:12:16;;;;;;;5.40;4.90;;;;;;;22.28;57.52;99404.22;5053878;28;20099;-90
2021/07/04 02:14:44;;;;;;;5.40;4.90;;;;;;;22.26;57.24;99404.38;5051929;28;20049;-90
2021/07/04 02:17:11;;;;;;;5.32;4.82;;;;;;;22.25;57.48;99402.69;5052351;28;20049;-90
2021/07/04 02:19:40;;;;;;;6.53;4.68;;;;;;;22.25;57.73;99407.22;5052487;28;20139;-90
2021/07/04 02:22:09;;;;;;;5.55;5.05;;;;;;;22.23;57.94;99402.03;5051637;28;20059;-90
2021/07/04 02:24:37;;;;;;;6.00;3.83;;;;;;;22.23;57.49;99404.72;5058981;28;20092;-90
2021/07/04 02:27:05;;;;;;;5.90;4.55;;;;;;;22.21;57.79;99400.53;5072960;28;20067;-90
2021/07/04 02:29:32;;;;;;;5.32;4.82;;;;;;;22.21;57.80;99400.53;5071678;28;20044;-90
2021/07/04 02:31:59;;;;;;;6.60;4.68;;;;;;;22.19;58.12;99403.38;5072293;28;20060;-90
2021/07/04 02:34:29;;;;;;;5.45;4.95;;;;;;;22.19;58.56;99407.91;5071315;28;20052;-90
2021/07/04 02:36:56;;;;;;;5.50;4.50;;;;;;;22.18;58.28;99401.72;5072719;28;20060;-89
2021/07/04 02:39:22;;;;;;;5.15;4.57;;;;;;;22.18;57.97;99401.72;5056603;28;20072;-89
2021/07/04 02:41:49;;;;;;;9.65;5.07;;;;;;;22.17;58.22;99400.06;5052671;28;20064;-90
2021/07/04 02:44:16;;;;;;;6.68;5.00;;;;;;;22.18;58.34;99400.88;5052161;28;20061;-90
2021/07/04 02:46:43;;;;;;;4.70;4.05;;;;;;;22.16;58.30;99398.38;5052137;28;20517;-90
2021/07/04 02:49:09;;;;;;;6.35;5.05;;;;;;;22.16;58.30;99398.38;5053757;28;20048;-90
2021/07/04 02:51:36;;;;;;;6.90;5.25;;;;;;;22.14;58.20;99397.72;5072570;28;20052;-90
2021/07/04 02:54:02;;;;;;;5.60;5.10;;;;;;;22.13;58.44;99388.00;5070005;28;20052;-91
2021/07/04 02:56:48;;;;;;;7.90;5.55;;;;;;;22.11;58.43;99398.91;5052103;28;20053;-90
2021/07/04 02:59:15;;;;;;;6.32;5.50;;;;;;;22.10;58.62;99396.38;5051899;28;20044;-90
2021/07/04 03:01:42;;;;;;;5.82;5.22;;;;;;;22.07;58.59;99389.53;5050238;28;20053;-90
2021/07/04 03:04:08;;;;;;;6.40;5.47;;;;;;;22.06;58.72;99397.75;5050570;28;20487;-90
2021/07/04 03:06:35;;;;;;;5.30;4.60;;;;;;;22.04;58.56;99391.69;5051591;28;20053;-91
2021/07/04 03:09:02;;;;;;;7.70;5.22;;;;;;;22.03;58.87;99392.72;5051017;28;20064;-90
2021/07/04 03:11:28;;;;;;;7.35;5.18;;;;;;;22.01;59.05;99395.56;5050282;28;20053;-91
2021/07/04 03:13:55;;;;;;;4.78;4.28;;;;;;;21.99;58.72;99406.44;5050720;28;20057;-89
2021/07/04 03:16:21;;;;;;;6.50;5.63;;;;;;;21.98;59.22;99399.41;5049517;28;20114;-90
2021/07/04 03:18:48;;;;;;;5.90;4.57;;;;;;;21.98;59.28;99395.91;5051213;28;20045;-90
2021/07/04 03:21:15;;;;;;;6.22;5.35;;;;;;;21.97;59.28;99403.13;5051239;28;20052;-90
2021/07/04 03:23:41;;;;;;;5.72;5.13;;;;;;;21.97;59.45;99395.06;5050865;28;20128;-90
2021/07/04 03:26:08;;;;;;;5.25;4.75;;;;;;;21.98;59.18;99393.25;5050709;28;20060;-90
2021/07/04 03:28:34;;;;;;;5.88;5.10;;;;;;;21.96;59.64;99388.03;5051014;28;20056;-89
2021/07/04 03:31:01;;;;;;;6.10;5.50;;;;;;;21.96;59.70;99385.38;5050195;28;20461;-89
2021/07/04 03:33:29;;;;;;;10.18;4.97;;;;;;;21.95;59.44;99386.38;5050932;28;20061;-90
2021/07/04 03:35:55;;;;;;;5.97;5.22;;;;;;;21.95;59.50;99386.38;5050887;28;20054;-90
2021/07/04 03:38:23;;;;;;;5.82;5.05;;;;;;;21.95;59.80;99394.41;5050539;28;20506;-89
2021/07/04 03:40:50;;;;;;;5.97;5.32;;;;;;;21.94;59.81;99392.72;5049762;28;20045;-91
2021/07/04 03:43:16;;;;;;;5.35;4.75;;;;;;;21.95;59.72;99401.63;5051004;28;20418;-90
2021/07/04 03:45:43;;;;;;;6.22;5.63;;;;;;;21.94;59.92;99398.09;5049232;28;20060;-89
2021/07/04 03:48:09;;;;;;;5.53;4.90;;;;;;;21.94;59.94;99394.59;5050828;28;20049;-89
2021/07/04 03:50:36;;;;;;;5.93;4.90;;;;;;;21.95;59.93;99401.63;5051042;28;20417;-88
2021/07/04 03:53:03;;;;;;;6.43;4.57;;;;;;;21.93;59.89;99407.13;5050770;28;20049;-88
2021/07/04 03:55:30;;;;;;;7.78;4.35;;;;;;;21.94;60.12;99408.00;5049202;28;20053;-89
2021/07/04 03:57:56;;;;;;;4.82;4.28;;;;;;;21.92;59.82;99408.16;5050625;28;20532;-89
2021/07/04 04:00:23;;;;;;;7.95;5.28;;;;;;;21.92;60.01;99399.28;5050610;28;20052;-89
2021/07/04 04:02:50;;;;;;;5.40;4.60;;;;;;;21.90;60.08;99404.78;5050724;28;20048;-89
2021/07/04 04:05:17;;;;;;;5.68;4.88;;;;;;;21.90;60.34;99395.94;5010326;28;1115393;-89
2021/07/04 04:07:44;;;;;;;6.40;5.60;;;;;;;21.90;60.46;99398.63;5050539;28;20546;-90
2021/07/04 04:10:12;;;;;;;5.97;5.43;;;;;;;21.90;60.67;99404.78;5050164;28;20487;-89
2021/07/04 04:12:38;;;;;;;6.00;5.40;;;;;;;21.90;60.57;99409.34;5050536;28;20079;-89
2021/07/04 04:15:07;;;;;;;5.68;5.07;;;;;;;21.91;60.71;99409.16;5054869;28;20071;-90
2021/07/04 04:17:34;;;;;;;5.72;5.07;;;;;;;21.92;60.85;99409.97;5053952;28;20517;-89
2021/07/04 04:20:00;;;;;;;6.22;5.20;;;;;;;21.93;60.67;99412.50;5053889;28;20509;-89
2021/07/04 04:22:27;;;;;;;5.60;5.00;;;;;;;21.94;60.79;99408.81;5055635;28;20433;-89
2021/07/04 04:24:54;;;;;;;5.53;4.93;;;;;;;21.95;60.72;99413.19;5055059;28;20048;-90
2021/07/04 04:27:20;;;;;;;5.30;4.78;;;;;;;21.97;60.90;99408.47;5066876;28;20497;-90
2021/07/04 04:29:47;;;;;;;7.47;5.40;;;;;;;22.00;60.96;99416.19;5074815;28;20052;-90
2021/07/04 04:32:15;;;;;;;5.97;5.28;;;;;;;22.02;61.07;99405.28;5073751;28;20052;-90
2021/07/04 04:34:42;;;;;;;5.50;4.90;;;;;;;22.04;61.22;99415.81;5074718;28;20498;-90
2021/07/04 04:37:08;;;;;;;4.88;4.43;;;;;;;22.07;60.92;99418.16;5074999;28;20494;-90
2021/07/04 04:39:35;;;;;;;8.13;5.15;;;;;;;22.09;61.32;99414.31;5075474;28;20049;-91
2021/07/04 04:42:02;;;;;;;5.07;4.57;;;;;;;22.12;61.31;99413.13;5054994;28;20668;-90
2021/07/04 04:44:33;;;;;;;6.88;3.88;;;;;;;22.15;61.37;99412.78;5054691;28;20422;-90
2021/07/04 04:46:59;;;;;;;6.22;5.18;;;;;;;22.17;61.35;99413.47;5055990;28;20057;-90
2021/07/04 04:49:26;;;;;;;6.38;5.25;;;;;;;22.18;61.47;99408.91;5053869;28;20071;-90
2021/07/04 04:51:53;;;;;;;5.00;4.30;;;;;;;22.19;60.84;99411.44;5056936;28;20086;-92
2021/07/04 04:54:19;;;;;;;4.68;4.18;;;;;;;22.20;60.92;99409.59;5055609;28;20052;-90
2021/07/04 04:56:46;;;;;;;5.70;4.72;;;;;;;22.20;61.04;99405.06;5057265;28;20526;-90
2021/07/04 04:59:13;;;;;;;5.07;4.57;;;;;;;22.20;61.21;99406.91;5056378;28;20059;-90
2021/07/04 05:01:39;;;;;;;5.85;4.55;;;;;;;22.20;60.94;99405.06;5054377;28;20056;-91
2021/07/04 05:04:07;;;;;;;6.95;4.85;;;;;;;22.20;61.04;99410.41;5055000;28;20489;-90
2021/07/04 05:06:33;;;;;;;5.63;4.88;;;;;;;22.20;61.17;99413.09;5055381;28;20521;-90
2021/07/04 05:09:00;;;;;;;5.47;4.90;;;;;;;22.20;60.95;99410.41;5053730;28;20058;-91
2021/07/04 05:11:27;;;;;;;7.15;4.72;;;;;;;22.19;60.88;99415.94;5055356;28;20053;-90
2021/07/04 05:13:53;;;;;;;5.35;4.72;;;;;;;22.18;60.82;99404.41;5053323;28;20057;-89
2021/07/04 05:16:20;;;;;;;6.05;4.93;;;;;;;22.18;61.21;99404.41;5053389;28;20049;-90
2021/07/04 05:18:47;;;;;;;7.07;4.57;;;;;;;22.17;61.33;99404.56;5054487;28;20111;-90
2021/07/04 05:21:13;;;;;;;7.35;4.85;;;;;;;22.17;61.34;99408.09;5056226;28;20434;-90
2021/07/04 05:23:43;;;;;;;5.20;4.70;;;;;;;22.18;61.18;99411.59;5074332;28;20052;-90
2021/07/04 05:26:10;;;;;;;5.53;4.60;;;;;;;22.18;61.09;99417.81;5072741;28;20064;-91
2021/07/04 05:28:38;;;;;;;6.13;5.53;;;;;;;22.19;61.33;99419.47;5074122;28;20048;-90
2021/07/04 05:31:05;;;;;;;5.95;4.40;;;;;;;22.19;61.29;99407.91;5072529;28;20087;-88
2021/07/04 05:33:33;;;;;;;7.45;5.32;;;;;;;22.18;61.32;99404.41;5073172;28;20143;-88
2021/07/04 05:35:59;;;;;;;5.75;4.53;;;;;;;22.17;61.05;99413.47;5063563;28;20049;-90
2021/07/04 05:38:31;;;;;;;5.35;4.85;;;;;;;22.16;61.64;99414.44;5053931;28;20102;-89
2021/07/04 05:40:58;;;;;;;8.02;5.10;;;;;;;22.15;61.40;99406.56;5052003;28;20053;-89
2021/07/04 05:43:25;;;;;;;6.20;4.93;;;;;;;22.12;61.56;99403.25;5053704;28;20068;-89
2021/07/04 05:45:51;;;;;;;7.45;5.60;;;;;;;22.10;61.24;99404.44;5052522;28;20510;-89
2021/07/04 05:48:18;;;;;;;7.50;5.22;;;;;;;22.07;61.43;99404.75;5053245;28;20075;-89
2021/07/04 05:50:48;;;;;;;9.88;5.40;;;;;;;22.03;62.11;99396.25;5052355;28;20040;-89
2021/07/04 05:53:16;;;;;;;8.25;5.40;;;;;;;22.03;61.82;99400.75;5053617;28;20055;-88
2021/07/04 05:55:43;;;;;;;10.10;5.35;;;;;;;22.01;61.46;99400.91;5052058;28;20414;-88
2021/07/04 05:58:10;;;;;;;7.55;5.50;;;;;;;21.99;61.76;99398.41;5052009;28;20061;-88
2021/07/04 06:00:38;;;;;;;8.02;5.53;;;;;;;21.97;61.83;99397.75;5052857;28;20118;-88
2021/07/04 06:03:05;;;;;;;5.38;4.82;;;;;;;21.95;62.00;99391.75;5052086;28;20461;-87
2021/07/04 06:05:32;;;;;;;7.40;5.53;;;;;;;21.94;62.07;99395.41;5056831;28;20048;-88
2021/07/04 06:07:58;;;;;;;6.82;5.15;;;;;;;21.92;61.89;99384.03;5072894;28;20056;-88
2021/07/04 06:10:25;;;;;;;6.40;4.80;;;;;;;21.89;61.95;99396.91;5072801;28;20211;-88
2021/07/04 06:12:52;;;;;;;5.22;4.72;;;;;;;21.88;61.95;99382.72;5071989;28;20056;-86
2021/07/04 06:15:19;;;;;;;7.93;4.70;;;;;;;21.86;62.22;99382.88;5072009;28;20098;-86
2021/07/04 06:17:45;;;;;;;7.57;4.90;;;;;;;21.85;62.06;99370.50;5072166;28;20060;-86
2021/07/04 06:20:14;;;;;;;8.20;4.78;;;;;;;21.84;62.29;99381.38;5072089;28;20053;-87
2021/07/04 06:22:43;;;;;;;4.75;4.22;;;;;;;21.80;62.48;99390.75;5072140;28;20509;-85
2021/07/04 06:25:11;;;;;;;5.60;4.72;;;;;;;21.78;62.38;99390.91;5072276;28;20387;-86
2021/07/04 06:27:40;;;;;;;5.03;3.90;;;;;;;21.78;62.30;99388.25;5072429;28;20048;-86
2021/07/04 06:30:09;;;;;;;5.57;4.47;;;;;;;21.78;62.58;99388.25;5071921;28;20067;-88
2021/07/04 06:32:36;;;;;;;7.88;4.72;;;;;;;21.78;62.36;99387.41;5071140;28;20059;-88
2021/07/04 06:35:06;;;;;;;5.90;4.25;;;;;;;21.80;62.57;99385.41;5072448;28;20658;-86
2021/07/04 06:37:33;;;;;;;7.10;4.82;;;;;;;21.81;62.74;99385.22;5070516;28;20395;-88
2021/07/04 06:40:00;;;;;;;6.10;4.50;;;;;;;21.84;62.81;99389.41;5051662;28;20049;-87
2021/07/04 06:42:26;;;;;;;5.45;4.55;;;;;;;21.85;62.87;99375.00;5050883;28;20053;-88
2021/07/04 06:44:53;;;;;;;5.32;4.68;;;;;;;21.88;63.13;99388.06;5052072;28;20045;-88
2021/07/04 06:47:19;;;;;;;5.47;4.63;;;;;;;21.91;63.01;99387.72;5052282;28;20051;-88
2021/07/04 06:49:46;;;;;;;4.60;3.50;;;;;;;21.94;62.85;99389.22;5057087;28;20076;-88
2021/07/04 06:52:13;;;;;;;5.50;3.63;;;;;;;21.98;62.65;99396.75;5072155;28;20063;-87
2021/07/04 06:54:40;;;;;;;5.10;3.03;;;;;;;22.02;62.35;99393.72;5072060;28;20527;-88
2021/07/04 06:59:53;;;;;;;3.63;3.33;;;;;;;22.08;62.04;99401.06;5072049;28;20051;-88
2021/07/04 07:02:19;;;;;;;3.67;3.08;;;;;;;22.11;61.54;99393.53;5070782;28;20060;-88
2021/07/04 07:04:46;;;;;;;3.03;2.70;;;;;;;22.13;61.60;99394.19;5056175;28;20481;-88
2021/07/04 07:07:12;;;;;;;3.75;3.33;;;;;;;22.15;61.88;99403.91;5052091;28;20045;-88
2021/07/04 07:09:39;;;;;;;3.47;3.17;;;;;;;22.17;61.91;99402.75;5051055;28;20441;-89
2021/07/04 07:12:06;;;;;;;3.50;3.20;;;;;;;22.18;62.18;99406.25;5052267;28;20052;-88
2021/07/04 07:14:32;;;;;;;3.28;2.80;;;;;;;22.20;62.11;99402.38;5051315;28;20107;-88
2021/07/04 07:16:59;;;;;;;3.35;2.70;;;;;;;22.22;62.30;99403.06;5052395;28;20517;-86
2021/07/04 07:19:26;;;;;;;7.03;3.20;;;;;;;22.23;62.54;99393.16;5051026;28;20065;-87
2021/07/04 07:21:52;;;;;;;3.67;3.38;;;;;;;22.26;62.17;99404.38;5051183;28;20045;-86
2021/07/04 07:24:19;;;;;;;4.72;4.22;;;;;;;22.27;62.47;99394.47;5051702;28;20052;-86
2021/07/04 07:26:46;;;;;;;6.93;4.65;;;;;;;22.31;62.64;99395.81;5051302;28;20061;-86
2021/07/04 07:29:12;;;;;;;6.25;4.55;;;;;;;22.33;62.34;99393.81;5052053;28;20052;-86
2021/07/04 07:31:39;;;;;;;6.85;4.60;;;;;;;22.35;62.37;99391.75;5053090;28;20371;-86
2021/07/04 07:34:06;;;;;;;6.75;4.82;;;;;;;22.37;61.91;99400.50;5051396;28;20049;-87
2021/07/04 07:36:32;;;;;;;7.63;5.22;;;;;;;22.36;62.27;99395.28;5052628;28;20056;-86
2021/07/04 07:38:59;;;;;;;5.80;4.78;;;;;;;22.37;62.04;99394.28;5051065;28;20498;-86
2021/07/04 07:41:26;;;;;;;6.47;5.65;;;;;;;22.37;62.39;99392.44;5052016;28;20053;-86
2021/07/04 07:43:52;;;;;;;5.93;5.32;;;;;;;22.40;62.71;99388.56;5051542;28;20060;-87
2021/07/04 07:46:19;;;;;;;5.63;5.15;;;;;;;22.44;62.43;99389.06;5051546;28;20052;-89
2021/07/04 07:48:45;;;;;;;5.95;5.40;;;;;;;22.49;62.52;99397.41;5053071;28;20163;-86
2021/07/04 07:51:13;;;;;;;5.63;5.07;;;;;;;22.53;62.47;99390.69;5055201;28;20056;-87
2021/07/04 07:53:42;;;;;;;7.40;5.85;;;;;;;22.57;62.14;99385.84;5056480;28;20104;-86
2021/07/04 07:56:08;;;;;;;8.50;5.68;;;;;;;22.60;62.20;99386.34;5054818;28;20056;-86
2021/07/04 07:58:35;;;;;;;6.28;5.68;;;;;;;22.63;62.47;99377.09;5055052;28;20049;-87
2021/07/04 08:01:05;;;;;;;5.65;5.05;;;;;;;22.64;62.20;99370.72;5056443;28;20049;-87
2021/07/04 08:03:31;;;;;;;6.03;5.43;;;;;;;22.65;62.18;99372.38;5055039;28;20055;-87
2021/07/04 08:05:58;;;;;;;6.15;4.40;;;;;;;22.65;62.15;99380.41;5059759;28;20056;-90
2021/07/04 08:08:24;;;;;;;5.35;4.75;;;;;;;22.64;62.06;99374.25;5074941;28;20052;-89
2021/07/04 08:10:51;;;;;;;6.45;5.57;;;;;;;22.62;62.13;99368.19;5075253;28;20045;-90
2021/07/04 08:13:18;;;;;;;6.20;5.57;;;;;;;22.61;62.43;99377.25;5075434;28;20059;-89
2021/07/04 08:15:44;;;;;;;6.57;5.28;;;;;;;22.60;62.64;99364.88;5074674;28;20106;-87
2021/07/04 08:18:11;;;;;;;6.15;5.22;;;;;;;22.59;62.65;99367.72;5073941;28;20056;-88
2021/07/04 08:20:38;;;;;;;6.53;5.20;;;;;;;22.57;62.72;99362.53;5073982;28;20440;-87
2021/07/04 08:23:06;;;;;;;6.05;5.50;;;;;;;22.57;62.80;99354.47;5073447;28;20052;-87
2021/07/04 08:25:33;;;;;;;7.57;5.80;;;;;;;22.55;62.80;99355.69;5074517;28;20057;-86
2021/07/04 08:27:59;;;;;;;7.10;5.13;;;;;;;22.54;62.85;99360.16;5073607;28;20571;-86
2021/07/04 08:30:26;;;;;;;6.65;5.70;;;;;;;22.51;62.72;99350.63;5073769;28;20071;-87
2021/07/04 08:32:53;;;;;;;6.50;5.45;;;;;;;22.49;63.17;99347.28;5074525;28;20057;-87
2021/07/04 08:35:19;;;;;;;6.68;5.35;;;;;;;22.49;63.09;99354.50;5054067;28;20083;-86
2021/07/04 08:37:46;;;;;;;8.55;5.85;;;;;;;22.48;63.15;99352.84;5056010;28;20055;-86
2021/07/04 08:40:14;;;;;;;7.68;5.72;;;;;;;22.47;63.23;99356.53;5054383;28;20111;-86
2021/07/04 08:42:41;;;;;;;5.93;5.32;;;;;;;22.46;63.50;99347.63;5055195;28;20470;-86
2021/07/04 08:45:08;;;;;;;6.35;5.75;;;;;;;22.46;63.56;99339.59;5054233;28;20053;-86
2021/07/04 08:47:35;;;;;;;7.78;6.50;;;;;;;22.48;63.93;99334.06;5054458;28;20483;-86
2021/07/04 08:50:03;;;;;;;7.53;6.72;;;;;;;22.48;63.95;99337.59;5053608;28;20048;-87
2021/07/04 08:52:30;;;;;;;7.75;5.53;;;;;;;22.51;64.04;99337.22;5054227;28;20461;-89
2021/07/04 08:54:57;;;;;;;7.72;5.65;;;;;;;22.56;64.26;99330.53;5053993;28;20529;-88
2021/07/04 08:57:23;;;;;;;8.65;6.05;;;;;;;22.62;63.82;99333.31;5053446;28;20057;-88
2021/07/04 08:59:50;;;;;;;7.38;6.47;;;;;;;22.69;64.45;99332.63;5051905;28;20053;-88
2021/07/04 09:02:43;;;;;;;7.88;7.07;;;;;;;22.72;64.72;99325.06;5054766;28;20052;-87
2021/07/04 09:05:11;;;;;;;7.90;7.00;;;;;;;22.85;64.18;99329.00;5051195;28;20053;-86
2021/07/04 09:07:40;;;;;;;8.00;7.22;;;;;;;22.91;64.22;99329.13;5054367;28;20060;-87
2021/07/04 09:10:09;;;;;;;7.97;7.18;;;;;;;22.98;64.18;99325.72;5054651;28;20139;-86
2021/07/04 09:12:39;;;;;;;8.45;7.30;;;;;;;23.01;63.92;99330.72;5053448;28;20053;-88
2021/07/04 09:15:31;;;;;;;8.48;7.68;;;;;;;23.00;63.68;99326.38;5054009;28;20068;-88
2021/07/04 09:17:59;;;;;;;10.27;7.95;;;;;;;23.08;63.36;99320.09;5051210;28;20064;-87
2021/07/04 09:20:28;;;;;;;10.55;8.60;;;;;;;23.07;63.89;99327.34;5054097;28;20048;-87
2021/07/04 09:22:57;;;;;;;12.98;8.85;;;;;;;23.08;63.75;99323.63;5054105;28;20056;-88
2021/07/04 09:25:28;;;;;;;12.15;8.77;;;;;;;23.09;63.90;99321.75;5052182;28;20502;-88
2021/07/04 09:28:11;;;;;;;9.70;8.70;;;;;;;23.07;64.24;99313.91;5053649;28;20395;-89
2021/07/04 09:30:46;;;;;;;9.63;8.25;;;;;;;23.13;63.88;99326.59;5052842;28;20045;-88
2021/07/04 09:33:22;;;;;;;10.45;8.18;;;;;;;23.16;64.24;99323.56;5052498;28;20063;-90
2021/07/04 09:36:03;;;;;;;10.55;9.07;;;;;;;23.20;64.43;99320.50;5053198;28;20083;-89
2021/07/04 09:38:38;;;;;;;8.82;7.93;;;;;;;23.25;64.54;99313.56;5052487;28;20049;-90
2021/07/04 09:41:07;;;;;;;12.27;8.50;;;;;;;23.32;64.02;99312.88;5053443;28;20056;-89
2021/07/04 09:43:37;;;;;;;11.60;8.60;;;;;;;23.36;64.16;99311.50;5052286;28;20067;-87
2021/07/04 09:46:05;;;;;;;10.10;8.55;;;;;;;23.42;64.08;99310.78;5051986;28;20103;-88
2021/07/04 09:48:32;;;;;;;8.85;7.95;;;;;;;23.48;63.85;99312.75;5052154;28;20068;-88
2021/07/04 09:51:11;;;;;;;12.48;7.60;;;;;;;23.52;63.81;99310.50;5052250;28;20448;-88
2021/07/04 09:53:48;;;;;;;11.15;7.80;;;;;;;23.56;64.19;99301.88;5053389;28;20057;-88
2021/07/04 09:56:22;;;;;;;8.82;6.93;;;;;;;23.63;64.00;99298.47;5055016;28;20055;-88
2021/07/04 09:58:51;;;;;;;10.38;6.88;;;;;;;23.67;63.55;99292.53;5072011;28;20067;-89
2021/07/04 10:01:38;;;;;;;10.05;7.25;;;;;;;23.70;63.96;99291.38;5073655;28;20053;-90
2021/07/04 10:04:08;;;;;;;7.90;7.00;;;;;;;23.82;64.07;99286.34;5072065;28;20076;-89
2021/07/04 10:06:45;;;;;;;7.65;6.75;;;;;;;23.89;63.97;99289.13;5073033;28;20052;-90
2021/07/04 10:09:12;;;;;;;8.00;6.95;;;;;;;24.03;64.23;99290.94;5072952;28;20056;-89
2021/07/04 10:11:39;;;;;;;7.60;6.78;;;;;;;24.18;64.31;99292.84;5055403;28;20498;-91
2021/07/04 10:14:05;;;;;;;8.43;6.85;;;;;;;24.31;63.83;99284.06;5051631;28;20541;-90
2021/07/04 10:16:32;;;;;;;7.18;6.47;;;;;;;24.47;64.21;99285.69;5052747;28;20052;-91
2021/07/04 10:19:02;;;;;;;7.45;6.75;;;;;;;24.60;63.38;99283.13;5052525;28;20567;-90
2021/07/04 10:21:32;;;;;;;6.78;6.15;;;;;;;24.74;63.19;99277.88;5052508;28;20053;-93
2021/07/04 10:24:00;;;;;;;7.90;6.43;;;;;;;24.87;62.49;99274.53;5055804;28;20059;-92
2021/07/04 10:26:28;;;;;;;8.35;7.55;;;;;;;24.95;62.11;99273.56;5072743;28;20092;-88
2021/07/04 10:28:59;;;;;;;6.97;5.70;;;;;;;25.01;61.52;99272.78;5073202;28;20068;-89
2021/07/04 10:31:31;;;;;;;8.50;6.32;;;;;;;25.07;60.90;99263.09;5072195;28;20070;-91
2021/07/04 10:34:09;;;;;;;7.40;6.25;;;;;;;25.15;61.70;99267.50;5052944;28;20059;-91
2021/07/04 10:36:59;;;;;;;6.53;5.93;;;;;;;25.23;62.04;99260.09;5066071;28;20448;-91
2021/07/04 10:39:35;;;;;;;6.95;6.25;;;;;;;25.38;62.63;99254.63;5071067;28;20041;-91
2021/07/04 10:42:08;;;;;;;7.25;6.55;;;;;;;25.59;64.27;99258.28;5071278;28;20049;-89
2021/07/04 10:44:46;;;;;;;6.70;6.00;;;;;;;25.82;62.94;99259.84;5072035;28;20048;-88
2021/07/04 10:47:23;;;;;;;7.47;6.15;;;;;;;26.09;62.78;99251.06;5071764;28;20056;-89
2021/07/04 10:49:56;;;;;;;5.93;5.32;;;;;;;26.40;62.18;99237.03;5064591;28;20045;-88
2021/07/04 10:52:35;;;;;;;5.88;5.22;;;;;;;26.75;61.25;99230.66;5052091;28;20049;-89
2021/07/04 10:55:05;;;;;;;6.25;5.20;;;;;;;27.23;63.08;99227.94;5051622;28;20055;-88
2021/07/04 10:58:02;;;;;;;5.45;4.95;;;;;;;27.72;61.18;99222.25;5052654;28;20048;-88
2021/07/04 11:00:33;;;;;;;5.28;4.78;;;;;;;28.25;61.12;99223.84;5048155;28;20045;-87
2021/07/04 11:03:09;;;;;;;5.82;5.22;;;;;;;28.67;58.12;99222.56;5051231;28;20044;-89
2021/07/04 11:05:38;;;;;;;6.40;4.68;;;;;;;29.02;57.15;99223.97;5051155;28;20045;-87
2021/07/04 11:08:09;;;;;;;5.95;5.35;;;;;;;29.27;55.29;99222.03;5051255;28;20107;-89
2021/07/04 11:10:51;;;;;;;5.78;5.22;;;;;;;29.36;54.13;99225.31;5050841;28;20052;-90
2021/07/04 11:13:18;;;;;;;5.97;4.78;;;;;;;29.44;53.04;99220.63;5051254;28;20449;-88
2021/07/04 11:15:49;;;;;;;5.80;5.20;;;;;;;29.36;53.09;99208.19;5052153;28;20086;-88
2021/07/04 11:18:20;;;;;;;6.15;5.55;;;;;;;29.31;52.90;99205.34;5062814;28;20045;-88
2021/07/04 11:20:48;;;;;;;5.97;5.40;;;;;;;29.38;55.16;99204.22;5072455;28;20052;-89
2021/07/04 11:23:22;;;;;;;6.20;5.60;;;;;;;29.48;54.00;99198.25;5072157;28;20056;-88
2021/07/04 11:26:06;;;;;;;7.90;5.22;;;;;;;29.54;53.20;99198.44;5076402;28;20059;-89
2021/07/04 11:28:34;;;;;;;6.43;5.75;;;;;;;29.65;53.12;99200.41;5076525;28;20052;-91
2021/07/04 11:31:01;;;;;;;6.07;5.55;;;;;;;29.74;53.28;99188.19;5071659;28;20494;-90
2021/07/04 11:36:48;;;;;;;5.50;5.00;;;;;;;30.19;52.95;99175.28;5076406;28;20049;-92
2021/07/04 11:39:25;;;;;;;5.10;4.70;;;;;;;30.59;51.76;99170.28;5067408;28;20059;-94
2021/07/04 11:41:54;;;;;;;5.70;5.03;;;;;;;30.77;50.04;99167.50;5073303;28;20052;-92
2021/07/04 11:44:23;;;;;;;5.57;4.72;;;;;;;30.84;48.13;99167.38;5076646;28;20048;-91
2021/07/04 11:46:52;;;;;;;5.18;4.65;;;;;;;30.80;47.98;99161.56;5076554;28;20045;-92
2021/07/04 11:49:21;;;;;;;5.18;4.72;;;;;;;30.77;49.96;99156.63;5075374;28;20066;-92
2021/07/04 11:51:49;;;;;;;5.32;4.82;;;;;;;30.85;48.90;99162.75;5075311;28;20052;-92